PILOTS ONLINE: 300    ATC ONLINE: 47

CYVR

Vancouver International Airport

Location

IATA YVR
City Vancouver
Country  Canada
Latitude 49° 11' 38" N
Longitude 123° 11' 2" W
Elevation 14 ft
Type Large Airport

Map

Weather

METAR
2014/10/02 00:00
CYVR 020000Z 26006KT 30SM FEW040 FEW060 OVC073 14/10 A3016 RMK CF1SC1AC6 SLP214
TAF
2014/10/01 21:41
TAF CYVR 012038Z 0121/0224 28005KT P6SM BKN060 
     FM012300 28008KT P6SM SCT050 BKN180 
      BECMG 0208/0210 08007KT 
     FM021400 VRB03KT P6SM SCT015 BKN140 
      RMK NXT FCST BY 020000Z

Runways

08L/26R 9940 ft / 200 ft
08R/26L 11500 ft / 200 ft
12/30 7300 ft / 200 ft
XX/26A 3500 ft / 75 ft

Outbound flights

Callsign Flying to Pilot ATD/STD ETA Aircraft
ROU1842  KSFO - San Francisco
United States
Itamar Reuven
1023405
22:33 00:08 A319

Inbound flights

Callsign Flying from Pilot ATD ETA Aircraft